Time;durP1;ratioP1;P1;durP2;ratioP2;P2;SDS_P1;SDS_P2;PMS_P1;PMS_P2;Temp;Humidity;BMP_temperature;BMP_pressure;BME280_temperature;BME280_humidity;BME280_pressure;Samples;Min_cycle;Max_cycle;Signal;HPM_P1;HPM_P2
2022/11/01 00:01:26;;;;;;;18.42;11.32;;;13.10;99.90;;;;;;5091227;28;20457;-49
2022/11/01 00:03:52;;;;;;;22.98;13.25;;;13.10;99.90;;;;;;5092680;28;20415;-49
2022/11/01 00:06:17;;;;;;;20.05;13.15;;;13.10;99.90;;;;;;5095260;28;20490;-50
2022/11/01 00:08:43;;;;;;;17.05;10.88;;;13.10;99.90;;;;;;5095529;28;20104;-55
2022/11/01 00:11:12;;;;;;;20.80;10.98;;;13.10;99.90;;;;;;5095259;28;20028;-49
2022/11/01 00:13:37;;;;;;;25.23;12.13;;;13.10;99.90;;;;;;5095264;28;20073;-50
2022/11/01 00:16:03;;;;;;;30.55;13.18;;;13.10;99.90;;;;;;5092549;28;20036;-48
2022/11/01 00:18:28;;;;;;;26.10;13.38;;;13.20;99.90;;;;;;5088808;28;20497;-52
2022/11/01 00:20:54;;;;;;;24.30;14.15;;;13.20;99.90;;;;;;5095197;28;20020;-52
2022/11/01 00:23:19;;;;;;;26.17;13.98;;;13.30;99.90;;;;;;5095141;28;20012;-55
2022/11/01 00:25:45;;;;;;;30.13;14.68;;;13.30;99.90;;;;;;5095213;28;20067;-48
2022/11/01 00:28:12;;;;;;;27.00;16.10;;;13.30;99.90;;;;;;5095392;28;20044;-53
2022/11/01 00:30:38;;;;;;;24.45;15.35;;;13.40;99.90;;;;;;5112452;22;20043;-53
2022/11/01 00:33:04;;;;;;;22.17;14.30;;;13.40;99.90;;;;;;5053573;28;20063;-52
2022/11/01 00:35:31;;;;;;;19.83;13.13;;;13.30;99.90;;;;;;5053805;28;20043;-47
2022/11/01 00:37:57;;;;;;;24.17;12.00;;;13.40;99.90;;;;;;5054935;28;20029;-49
2022/11/01 00:40:23;;;;;;;25.45;15.57;;;13.30;99.90;;;;;;5055297;28;20496;-48
2022/11/01 00:42:49;;;;;;;31.90;18.05;;;13.40;99.90;;;;;;5074521;28;20032;-48
2022/11/01 00:45:14;;;;;;;23.02;14.68;;;13.40;99.90;;;;;;5074657;28;20476;-49
2022/11/01 00:47:40;;;;;;;24.15;14.68;;;13.50;99.90;;;;;;5074333;28;20043;-46
2022/11/01 00:50:05;;;;;;;26.83;14.93;;;13.40;99.90;;;;;;5074767;28;20077;-46
2022/11/01 00:52:31;;;;;;;24.90;13.60;;;13.40;99.90;;;;;;5073918;28;20023;-50
2022/11/01 00:54:56;;;;;;;36.72;17.92;;;13.40;99.90;;;;;;5073240;28;20025;-47
2022/11/01 00:57:22;;;;;;;32.13;21.27;;;13.40;99.90;;;;;;5073920;28;20523;-46
2022/11/01 00:59:47;;;;;;;32.08;23.35;;;13.30;99.90;;;;;;5074006;28;20043;-46
2022/11/01 01:02:13;;;;;;;28.58;16.33;;;13.30;99.90;;;;;;5073239;28;20051;-47
2022/11/01 01:04:41;;;;;;;22.50;13.10;;;13.30;99.90;;;;;;5073487;28;20112;-49
2022/11/01 01:07:10;;;;;;;17.95;12.23;;;13.30;99.90;;;;;;5072951;28;20028;-45
2022/11/01 01:09:35;;;;;;;19.50;12.88;;;13.20;99.90;;;;;;5074473;28;20035;-45
2022/11/01 01:12:01;;;;;;;22.00;11.82;;;13.20;99.90;;;;;;5073763;28;20033;-47
2022/11/01 01:14:28;;;;;;;21.98;12.65;;;13.20;99.90;;;;;;5073912;28;20504;-49
2022/11/01 01:16:53;;;;;;;27.90;15.52;;;13.20;99.90;;;;;;5073712;28;20031;-49
2022/11/01 01:19:19;;;;;;;23.65;13.38;;;13.30;99.90;;;;;;5072551;28;20021;-46
2022/11/01 01:21:45;;;;;;;20.75;12.05;;;13.30;99.90;;;;;;5072742;28;20054;-47
2022/11/01 01:24:10;;;;;;;24.83;14.30;;;13.30;99.90;;;;;;5073726;28;20399;-52
2022/11/01 01:26:36;;;;;;;26.92;17.23;;;13.30;99.90;;;;;;5073984;28;20036;-47
2022/11/01 01:29:02;;;;;;;32.22;18.42;;;13.40;99.90;;;;;;5073864;28;20098;-46
2022/11/01 01:31:27;;;;;;;35.08;17.25;;;13.60;99.90;;;;;;5073597;28;20075;-45
2022/11/01 01:33:53;;;;;;;28.17;16.73;;;13.50;99.90;;;;;;5073162;28;20032;-52
2022/11/01 01:36:18;;;;;;;32.50;16.27;;;13.50;99.90;;;;;;5073884;28;20048;-46
2022/11/01 01:38:44;;;;;;;33.47;17.98;;;13.40;99.90;;;;;;5073722;28;20028;-49
2022/11/01 01:43:54;;;;;;;26.10;16.23;;;13.50;99.90;;;;;;5073384;28;20024;-47
2022/11/01 01:46:20;;;;;;;26.90;18.00;;;13.50;99.90;;;;;;5073643;28;20021;-48
2022/11/01 01:48:48;;;;;;;37.42;19.10;;;13.50;99.90;;;;;;5073226;28;20650;-46
2022/11/01 01:51:17;;;;;;;33.38;18.38;;;13.50;99.90;;;;;;5071900;28;20028;-49
2022/11/01 01:53:47;;;;;;;24.75;17.27;;;13.60;99.90;;;;;;5073199;28;20035;-49
2022/11/01 01:56:17;;;;;;;31.05;17.92;;;13.50;99.90;;;;;;5073069;28;20035;-51
2022/11/01 01:58:58;;;;;;;26.27;16.40;;;13.50;99.90;;;;;;5073384;28;20024;-53
2022/11/01 02:01:26;;;;;;;30.35;18.30;;;13.60;99.90;;;;;;5073182;28;20147;-48
2022/11/01 02:03:51;;;;;;;31.20;17.38;;;13.50;99.90;;;;;;5072741;28;20028;-49
2022/11/01 02:06:20;;;;;;;29.33;16.92;;;13.60;99.90;;;;;;5073193;28;20507;-49
2022/11/01 02:08:52;;;;;;;26.92;17.38;;;13.60;99.90;;;;;;5073150;28;20113;-46
2022/11/01 02:11:19;;;;;;;25.48;17.15;;;13.60;99.90;;;;;;5072920;28;20020;-51
2022/11/01 02:13:44;;;;;;;29.52;16.23;;;13.70;99.90;;;;;;5073074;28;20507;-49
2022/11/01 02:16:24;;;;;;;31.25;17.45;;;13.70;99.90;;;;;;5073567;28;20025;-48
2022/11/01 02:19:05;;;;;;;28.15;17.75;;;13.70;99.90;;;;;;5073058;28;20420;-50
2022/11/01 02:21:58;;;;;;;30.40;16.92;;;13.80;99.90;;;;;;5073221;28;20036;-53
2022/11/01 02:24:59;;;;;;;27.92;16.90;;;13.80;99.90;;;;;;5073771;28;20028;-49
2022/11/01 02:27:31;;;;;;;27.63;17.75;;;13.80;99.90;;;;;;5049238;28;20090;-47
2022/11/01 02:30:17;;;;;;;38.38;16.50;;;13.80;99.90;;;;;;5069322;28;20162;-47
2022/11/01 02:32:56;;;;;;;28.15;16.15;;;13.90;99.90;;;;;;5072011;28;20160;-50
2022/11/01 02:35:32;;;;;;;28.75;15.93;;;13.90;99.90;;;;;;5072791;28;20052;-48
2022/11/01 02:38:02;;;;;;;21.23;14.88;;;13.90;99.90;;;;;;5071096;28;20119;-52
2022/11/01 02:40:51;;;;;;;25.83;15.80;;;13.90;99.90;;;;;;5072283;28;20484;-48
2022/11/01 02:43:28;;;;;;;24.42;15.95;;;13.90;99.90;;;;;;5072161;28;20036;-48
2022/11/01 02:45:55;;;;;;;21.30;15.68;;;13.90;99.90;;;;;;5072699;28;20036;-48
2022/11/01 02:48:23;;;;;;;28.42;16.30;;;14.00;99.90;;;;;;5072160;28;20025;-49
2022/11/01 02:50:55;;;;;;;29.58;15.73;;;13.90;99.90;;;;;;5072311;28;20020;-51
2022/11/01 02:53:21;;;;;;;27.85;15.15;;;13.90;99.90;;;;;;5071800;28;20025;-47
2022/11/01 02:55:49;;;;;;;26.02;15.48;;;13.90;99.90;;;;;;5072175;28;20028;-47
2022/11/01 02:58:24;;;;;;;26.17;15.63;;;13.90;99.90;;;;;;5072004;28;20032;-48
2022/11/01 03:00:50;;;;;;;24.77;15.10;;;13.90;99.90;;;;;;5070758;28;20051;-50
2022/11/01 03:03:28;;;;;;;28.55;14.40;;;13.90;99.90;;;;;;5070409;28;20024;-52
2022/11/01 03:06:00;;;;;;;21.83;15.80;;;13.90;99.90;;;;;;5072162;28;20050;-50
2022/11/01 03:08:48;;;;;;;22.13;14.90;;;13.90;99.90;;;;;;5071873;28;20063;-52
2022/11/01 03:11:39;;;;;;;24.50;15.68;;;13.90;99.90;;;;;;5071773;28;20032;-47
2022/11/01 03:14:22;;;;;;;24.10;15.10;;;14.00;99.90;;;;;;5071620;28;20468;-46
2022/11/01 03:17:08;;;;;;;26.90;14.50;;;14.00;99.90;;;;;;5071758;28;20487;-48
2022/11/01 03:19:36;;;;;;;26.83;14.20;;;14.10;99.90;;;;;;5071779;28;20495;-47
2022/11/01 03:22:28;;;;;;;24.88;14.52;;;14.10;99.90;;;;;;5070242;28;20108;-49
2022/11/01 03:24:59;;;;;;;22.48;13.50;;;14.10;99.90;;;;;;5071597;28;20042;-51
2022/11/01 03:27:38;;;;;;;26.90;15.20;;;14.10;99.90;;;;;;5071775;28;20025;-53
2022/11/01 03:30:08;;;;;;;23.98;14.43;;;14.00;99.90;;;;;;5071520;28;20032;-48
2022/11/01 03:32:45;;;;;;;31.05;14.50;;;14.00;99.90;;;;;;5071118;28;20454;-48
2022/11/01 03:35:17;;;;;;;27.83;15.00;;;14.00;99.90;;;;;;5071623;28;20038;-47
2022/11/01 03:37:45;;;;;;;25.25;13.88;;;14.00;99.90;;;;;;5071111;28;20086;-46
2022/11/01 03:40:13;;;;;;;25.88;15.20;;;14.10;99.90;;;;;;5070912;28;20477;-49
2022/11/01 03:42:42;;;;;;;28.70;15.52;;;14.00;99.90;;;;;;5071243;28;20035;-48
2022/11/01 03:45:11;;;;;;;30.13;15.50;;;14.00;99.90;;;;;;5071538;28;20056;-49
2022/11/01 03:47:36;;;;;;;22.95;15.27;;;14.00;99.90;;;;;;5071394;28;20021;-45
2022/11/01 03:50:20;;;;;;;35.45;15.43;;;14.00;99.90;;;;;;5070110;28;20036;-46
2022/11/01 03:52:46;;;;;;;22.58;15.20;;;14.00;99.90;;;;;;5071131;28;20555;-50
2022/11/01 03:55:17;;;;;;;25.67;17.05;;;14.00;99.90;;;;;;5070867;28;20059;-51
2022/11/01 03:57:50;;;;;;;26.83;15.23;;;14.00;99.90;;;;;;5050088;28;20025;-51
2022/11/01 04:00:26;;;;;;;26.23;15.32;;;13.90;99.90;;;;;;5050240;28;20408;-48
2022/11/01 04:02:53;;;;;;;29.83;17.05;;;13.90;99.90;;;;;;5051156;28;20104;-50
2022/11/01 04:05:20;;;;;;;26.17;14.55;;;14.00;99.90;;;;;;5051240;28;20029;-52
2022/11/01 04:07:46;;;;;;;26.42;15.93;;;14.00;99.90;;;;;;5051175;28;20033;-48
2022/11/01 04:10:13;;;;;;;31.50;16.48;;;13.90;99.90;;;;;;5056634;28;20368;-50
2022/11/01 04:12:39;;;;;;;25.35;14.93;;;14.00;99.90;;;;;;5070706;28;20028;-52
2022/11/01 04:21:08;;;;;;;31.00;14.35;;;14.00;99.90;;;;;;5071473;28;20302;-51
2022/11/01 04:23:34;;;;;;;26.33;14.52;;;14.00;99.90;;;;;;5069638;28;20109;-51
2022/11/01 04:26:01;;;;;;;24.15;14.70;;;14.00;99.90;;;;;;5070852;28;20052;-50
2022/11/01 04:28:26;;;;;;;38.20;15.98;;;14.00;99.90;;;;;;5070917;28;20040;-48
2022/11/01 04:30:53;;;;;;;27.52;14.85;;;14.00;99.90;;;;;;5070897;28;20029;-49
2022/11/01 04:33:18;;;;;;;25.92;14.57;;;14.00;99.90;;;;;;5070603;28;20372;-48
2022/11/01 04:35:44;;;;;;;23.23;13.77;;;14.00;99.90;;;;;;5071152;28;20021;-55
2022/11/01 04:38:11;;;;;;;25.63;14.77;;;14.00;99.90;;;;;;5070589;28;20071;-49
2022/11/01 04:40:37;;;;;;;24.55;15.50;;;14.00;99.90;;;;;;5070606;28;20082;-49
2022/11/01 04:43:03;;;;;;;23.13;15.18;;;14.00;99.90;;;;;;5070535;28;20039;-53
2022/11/01 04:45:29;;;;;;;20.90;14.85;;;14.10;99.90;;;;;;5070761;28;20492;-50
2022/11/01 04:48:02;;;;;;;23.73;16.02;;;14.10;99.90;;;;;;5070763;28;20033;-51
2022/11/01 04:50:27;;;;;;;24.63;15.82;;;14.10;99.90;;;;;;5071764;28;20028;-50
2022/11/01 04:52:53;;;;;;;26.08;15.55;;;14.10;99.90;;;;;;5074570;28;20380;-51
2022/11/01 04:55:18;;;;;;;21.08;14.40;;;14.10;99.90;;;;;;5074258;28;20063;-52
2022/11/01 04:57:44;;;;;;;29.50;15.35;;;14.10;99.90;;;;;;5074539;28;20429;-52
2022/11/01 05:00:11;;;;;;;20.10;14.82;;;14.10;99.90;;;;;;5074260;28;20511;-53
2022/11/01 05:02:38;;;;;;;27.90;14.93;;;14.10;99.90;;;;;;5073855;28;20048;-46
2022/11/01 05:05:05;;;;;;;30.77;16.67;;;14.10;99.90;;;;;;5074205;28;20043;-50
2022/11/01 05:07:31;;;;;;;23.00;14.30;;;14.10;99.90;;;;;;5074259;28;20042;-51
2022/11/01 05:09:56;;;;;;;26.27;16.25;;;14.10;99.90;;;;;;5073792;28;20024;-53
2022/11/01 05:12:22;;;;;;;24.83;14.95;;;14.10;99.90;;;;;;5073807;28;20454;-54
2022/11/01 05:14:47;;;;;;;24.50;14.68;;;14.10;99.90;;;;;;5074142;28;20029;-49
2022/11/01 05:17:13;;;;;;;25.38;14.80;;;14.20;99.90;;;;;;5074275;28;20033;-49
2022/11/01 05:19:38;;;;;;;31.10;16.15;;;14.20;99.90;;;;;;5074326;28;20070;-50
2022/11/01 05:22:04;;;;;;;26.42;15.93;;;14.20;99.90;;;;;;5072541;28;20040;-50
2022/11/01 05:24:29;;;;;;;23.25;14.30;;;14.10;99.90;;;;;;5073875;28;20075;-53
2022/11/01 05:26:55;;;;;;;28.73;15.52;;;14.20;99.90;;;;;;5074109;28;20487;-49
2022/11/01 05:29:20;;;;;;;27.60;15.45;;;14.20;99.90;;;;;;5074044;28;20032;-47
2022/11/01 05:31:46;;;;;;;31.45;15.75;;;14.20;99.90;;;;;;5073577;28;20075;-47
2022/11/01 05:34:12;;;;;;;24.38;15.52;;;14.20;99.90;;;;;;5074100;28;20024;-47
2022/11/01 05:36:38;;;;;;;23.55;15.63;;;14.20;99.90;;;;;;5074467;28;20021;-50
2022/11/01 05:39:03;;;;;;;24.30;15.82;;;14.20;99.90;;;;;;5073564;28;20027;-54
2022/11/01 05:41:29;;;;;;;29.02;15.68;;;14.20;99.90;;;;;;5073741;28;20103;-49
2022/11/01 05:43:54;;;;;;;32.55;16.88;;;14.20;99.90;;;;;;5072568;28;20025;-47
2022/11/01 05:46:19;;;;;;;26.25;16.73;;;14.20;99.90;;;;;;5074548;28;20503;-48
2022/11/01 05:48:45;;;;;;;28.92;16.77;;;14.20;99.90;;;;;;5074062;28;20511;-47
2022/11/01 05:51:11;;;;;;;30.55;18.50;;;14.20;99.90;;;;;;5073874;28;20028;-46
2022/11/01 05:53:36;;;;;;;28.17;17.27;;;14.20;99.90;;;;;;5073006;28;20020;-49
2022/11/01 05:56:02;;;;;;;33.30;16.60;;;14.20;99.90;;;;;;5072415;28;20100;-47
2022/11/01 05:58:28;;;;;;;30.85;17.85;;;14.20;99.90;;;;;;5073369;28;20017;-49
2022/11/01 06:00:58;;;;;;;32.35;16.65;;;14.20;99.90;;;;;;5071244;28;20048;-52
2022/11/01 06:03:24;;;;;;;30.95;18.55;;;14.10;99.90;;;;;;5072926;28;20028;-48
2022/11/01 06:05:49;;;;;;;28.20;17.88;;;14.20;99.90;;;;;;5073292;28;20024;-48
2022/11/01 06:08:15;;;;;;;31.95;18.73;;;14.20;99.90;;;;;;5072872;28;20080;-52
2022/11/01 06:10:40;;;;;;;34.05;18.02;;;14.20;99.90;;;;;;5073215;28;20430;-49
2022/11/01 06:13:06;;;;;;;27.10;18.55;;;14.20;99.90;;;;;;5072823;28;20486;-47
2022/11/01 06:15:31;;;;;;;30.65;19.30;;;14.20;99.90;;;;;;5072866;28;20029;-46
2022/11/01 06:17:57;;;;;;;33.78;18.65;;;14.20;99.90;;;;;;5073132;28;20543;-50
2022/11/01 06:20:28;;;;;;;36.88;18.52;;;14.20;99.90;;;;;;5072909;28;20054;-46
2022/11/01 06:22:54;;;;;;;44.83;20.55;;;14.20;99.90;;;;;;5072616;28;20046;-46
2022/11/01 06:25:19;;;;;;;35.72;18.88;;;14.10;99.90;;;;;;5071823;28;20403;-52
2022/11/01 06:27:45;;;;;;;39.00;19.42;;;14.10;99.90;;;;;;5072694;28;20029;-51
2022/11/01 06:30:11;;;;;;;27.58;18.75;;;14.10;99.90;;;;;;5072752;28;20025;-48
2022/11/01 06:32:36;;;;;;;32.72;17.38;;;14.10;99.90;;;;;;5086225;23;20427;-49
2022/11/01 06:35:02;;;;;;;30.90;17.88;;;14.10;99.90;;;;;;5072832;28;20040;-49
2022/11/01 06:37:28;;;;;;;26.92;18.50;;;14.10;99.90;;;;;;5072436;28;20111;-54
2022/11/01 06:39:53;;;;;;;28.20;17.92;;;14.10;99.90;;;;;;5072766;28;20079;-50
2022/11/01 06:42:19;;;;;;;33.22;18.27;;;14.10;99.90;;;;;;5082764;28;20028;-49
2022/11/01 06:44:44;;;;;;;28.25;17.45;;;14.10;99.90;;;;;;5091177;28;20027;-54
2022/11/01 06:47:11;;;;;;;29.88;18.23;;;14.10;99.90;;;;;;5092002;28;20137;-55
2022/11/01 06:49:37;;;;;;;28.75;18.80;;;14.10;99.90;;;;;;5092728;28;20028;-55
2022/11/01 06:52:03;;;;;;;28.17;18.08;;;14.10;99.90;;;;;;5092261;28;20082;-52
2022/11/01 06:54:29;;;;;;;33.95;19.05;;;14.10;99.90;;;;;;5092610;28;20023;-52
2022/11/01 06:56:55;;;;;;;27.30;18.83;;;14.10;99.90;;;;;;5090307;28;20028;-55
2022/11/01 06:59:21;;;;;;;25.15;18.30;;;14.10;99.90;;;;;;5092458;28;20508;-48
2022/11/01 07:01:46;;;;;;;33.35;18.20;;;14.10;99.90;;;;;;5091907;28;20027;-54
2022/11/01 07:04:12;;;;;;;28.65;17.27;;;14.10;99.90;;;;;;5092144;28;20594;-51
2022/11/01 07:06:37;;;;;;;25.42;17.20;;;14.10;99.90;;;;;;5092441;28;20031;-53
2022/11/01 07:09:03;;;;;;;29.63;18.17;;;14.20;99.90;;;;;;5091780;28;20050;-48
2022/11/01 07:11:28;;;;;;;28.02;17.00;;;14.20;99.90;;;;;;5091306;28;20085;-50
2022/11/01 07:13:54;;;;;;;26.73;18.10;;;14.30;99.90;;;;;;5091770;28;20071;-51
2022/11/01 07:16:20;;;;;;;24.05;17.20;;;14.40;99.90;;;;;;5092258;28;20055;-52
2022/11/01 07:18:45;;;;;;;25.60;16.77;;;14.40;99.90;;;;;;5090393;28;20055;-53
2022/11/01 07:21:11;;;;;;;28.98;16.83;;;14.40;99.90;;;;;;5091692;28;20020;-49
2022/11/01 07:23:37;;;;;;;26.10;16.67;;;14.40;99.90;;;;;;5091686;28;20538;-49
2022/11/01 07:26:02;;;;;;;24.52;16.90;;;14.40;99.90;;;;;;5090692;28;20028;-50
2022/11/01 07:28:29;;;;;;;30.65;16.50;;;14.40;99.90;;;;;;5082021;28;20116;-51
2022/11/01 07:30:55;;;;;;;33.50;16.48;;;14.40;99.90;;;;;;5090290;28;20027;-51
2022/11/01 07:33:21;;;;;;;26.52;15.88;;;14.50;99.90;;;;;;5089503;28;20395;-51
2022/11/01 07:35:47;;;;;;;25.63;16.05;;;14.50;99.90;;;;;;5091620;28;20487;-51
2022/11/01 07:38:13;;;;;;;24.23;15.85;;;14.50;99.90;;;;;;5089341;28;20390;-45
2022/11/01 07:40:39;;;;;;;35.75;15.02;;;14.50;99.90;;;;;;5090828;28;20107;-49
2022/11/01 07:43:05;;;;;;;30.92;14.80;;;14.60;99.90;;;;;;5091142;28;20020;-48
2022/11/01 07:45:32;;;;;;;26.15;14.68;;;14.60;99.90;;;;;;5089498;28;20039;-48
2022/11/01 07:48:03;;;;;;;26.10;14.68;;;14.60;99.90;;;;;;5090425;28;20048;-50
2022/11/01 07:50:30;;;;;;;21.33;13.75;;;14.60;99.90;;;;;;5091329;28;20028;-49
2022/11/01 07:53:08;;;;;;;25.88;14.88;;;14.70;99.90;;;;;;5090922;28;20395;-51
2022/11/01 07:55:34;;;;;;;24.27;16.17;;;14.80;99.90;;;;;;5091361;28;20104;-47
2022/11/01 07:58:00;;;;;;;17.27;12.63;;;14.80;99.90;;;;;;5091298;28;20119;-49
2022/11/01 08:00:26;;;;;;;22.60;13.93;;;14.90;99.90;;;;;;5089950;28;20688;-50
2022/11/01 08:02:59;;;;;;;25.90;14.85;;;14.90;99.90;;;;;;5091125;28;20036;-51
2022/11/01 08:05:24;;;;;;;20.90;13.55;;;15.00;99.90;;;;;;5088741;28;20404;-52
2022/11/01 08:07:50;;;;;;;25.70;13.23;;;15.00;99.90;;;;;;5071260;28;20089;-49
2022/11/01 08:10:15;;;;;;;25.17;13.52;;;15.00;99.90;;;;;;5071140;28;20025;-48
2022/11/01 08:12:41;;;;;;;25.02;14.20;;;15.00;99.90;;;;;;5070801;28;20404;-51
2022/11/01 08:15:07;;;;;;;24.85;14.05;;;15.10;99.90;;;;;;5075948;28;20530;-48
2022/11/01 08:17:33;;;;;;;22.90;14.23;;;15.10;99.90;;;;;;5091347;28;20499;-48
2022/11/01 08:19:59;;;;;;;20.73;13.02;;;15.10;99.90;;;;;;5091341;28;20024;-47
2022/11/01 08:22:24;;;;;;;19.83;12.18;;;15.10;99.90;;;;;;5071277;28;20527;-50
2022/11/01 08:24:50;;;;;;;18.58;11.60;;;15.20;99.90;;;;;;5089424;28;20036;-45
2022/11/01 08:27:15;;;;;;;21.15;12.00;;;15.20;99.90;;;;;;5095170;28;20016;-50
2022/11/01 08:29:41;;;;;;;17.45;11.23;;;15.30;99.90;;;;;;5079412;28;20111;-48
2022/11/01 08:32:06;;;;;;;16.20;10.63;;;15.30;99.90;;;;;;5094300;28;20036;-47
2022/11/01 08:34:32;;;;;;;17.38;10.05;;;15.40;99.90;;;;;;5080591;28;20032;-48
2022/11/01 08:36:57;;;;;;;15.25;9.20;;;15.30;99.90;;;;;;5074599;28;20019;-49
2022/11/01 08:39:23;;;;;;;14.48;9.98;;;15.40;99.90;;;;;;5074746;28;20050;-50
2022/11/01 08:41:49;;;;;;;19.52;10.88;;;15.30;99.90;;;;;;5090744;28;20114;-49
2022/11/01 08:44:17;;;;;;;16.20;9.73;;;15.30;99.90;;;;;;5074603;28;20036;-50
2022/11/01 08:46:42;;;;;;;20.33;10.10;;;15.20;99.90;;;;;;5080664;28;20069;-46
2022/11/01 08:49:09;;;;;;;19.20;10.43;;;15.20;99.90;;;;;;5084469;28;20424;-52
2022/11/01 08:51:35;;;;;;;16.70;9.48;;;15.20;99.90;;;;;;5073137;28;20510;-48
2022/11/01 08:54:00;;;;;;;15.75;9.88;;;15.30;99.90;;;;;;5073168;28;20100;-50
2022/11/01 08:56:26;;;;;;;14.07;9.18;;;15.30;99.90;;;;;;5073016;28;20024;-57
2022/11/01 08:58:53;;;;;;;16.02;8.45;;;15.20;99.90;;;;;;5080930;28;20271;-51
2022/11/01 09:01:20;;;;;;;16.58;7.90;;;15.20;99.90;;;;;;5092735;28;20153;-51
2022/11/01 09:03:46;;;;;;;13.73;8.15;;;15.20;99.90;;;;;;5090558;28;20449;-47
2022/11/01 09:06:12;;;;;;;19.00;8.57;;;15.20;99.90;;;;;;5092919;28;20016;-45
2022/11/01 09:08:37;;;;;;;13.75;7.78;;;15.20;99.90;;;;;;5094226;28;20484;-46
2022/11/01 09:11:05;;;;;;;11.07;6.00;;;15.30;99.90;;;;;;5094443;28;20031;-51
2022/11/01 09:13:31;;;;;;;6.25;4.10;;;15.30;99.90;;;;;;5094290;28;20024;-45
2022/11/01 09:15:57;;;;;;;8.45;5.25;;;15.40;99.90;;;;;;5094232;28;20031;-45
2022/11/01 09:18:22;;;;;;;7.97;3.67;;;15.40;99.90;;;;;;5094099;28;20544;-47
2022/11/01 09:20:55;;;;;;;11.93;4.13;;;15.50;99.90;;;;;;5094168;28;20048;-49
2022/11/01 09:23:20;;;;;;;10.52;5.38;;;15.70;99.90;;;;;;5094105;28;20518;-45
2022/11/01 09:25:46;;;;;;;11.30;4.60;;;15.70;99.90;;;;;;5094179;28;20118;-49
2022/11/01 09:28:12;;;;;;;7.60;3.35;;;15.80;99.90;;;;;;5094014;28;20388;-47
2022/11/01 09:30:38;;;;;;;6.45;2.55;;;15.70;99.90;;;;;;5094042;28;20030;-46
2022/11/01 09:33:04;;;;;;;6.47;1.80;;;15.80;99.90;;;;;;5093475;28;20052;-48
2022/11/01 09:35:30;;;;;;;65.72;43.90;;;15.90;99.90;;;;;;5092851;28;20024;-47
2022/11/01 09:37:57;;;;;;;11.15;3.00;;;15.90;99.90;;;;;;5093143;28;20569;-46
2022/11/01 09:40:23;;;;;;;4.43;1.55;;;16.00;99.90;;;;;;5093683;28;20024;-51
2022/11/01 09:42:48;;;;;;;3.88;1.80;;;16.00;99.90;;;;;;5093585;28;20078;-47
2022/11/01 09:45:23;;;;;;;2.67;1.20;;;16.00;99.90;;;;;;5093904;28;20036;-50
2022/11/01 09:47:53;;;;;;;3.83;1.48;;;16.00;99.90;;;;;;5093814;28;20217;-52
2022/11/01 09:50:33;;;;;;;2.47;1.40;;;15.90;99.90;;;;;;5093543;28;20115;-48
2022/11/01 09:52:59;;;;;;;2.33;1.15;;;16.00;99.90;;;;;;5093293;28;20077;-48
2022/11/01 09:55:42;;;;;;;3.30;1.15;;;16.10;99.90;;;;;;5093585;28;20016;-50
2022/11/01 09:58:40;;;;;;;2.28;0.98;;;16.00;99.90;;;;;;5093741;28;20024;-47
2022/11/01 10:01:45;;;;;;;2.60;1.00;;;16.00;99.90;;;;;;5093484;28;20020;-50
2022/11/01 10:04:38;;;;;;;2.45;1.20;;;16.10;99.90;;;;;;5091928;28;20403;-50
2022/11/01 10:07:40;;;;;;;4.65;1.17;;;16.10;99.90;;;;;;5094371;28;20031;-47
2022/11/01 10:10:37;;;;;;;3.75;1.15;;;16.20;99.90;;;;;;5095279;28;20024;-49
2022/11/01 10:13:28;;;;;;;2.22;0.80;;;16.20;99.90;;;;;;5094554;28;20579;-46
2022/11/01 10:16:12;;;;;;;5.55;0.90;;;16.30;99.90;;;;;;5096031;28;20024;-47
2022/11/01 10:18:49;;;;;;;6.45;1.63;;;16.30;99.90;;;;;;5094321;28;20023;-46
2022/11/01 10:21:16;;;;;;;7.72;0.63;;;16.30;99.90;;;;;;5093148;28;20028;-52
2022/11/01 10:23:50;;;;;;;3.08;0.70;;;16.30;99.90;;;;;;5093017;28;20047;-49
2022/11/01 10:26:26;;;;;;;6.00;1.40;;;16.30;99.90;;;;;;5093350;28;20179;-52
2022/11/01 10:28:57;;;;;;;4.57;0.70;;;16.30;99.90;;;;;;5093456;28;20565;-48
2022/11/01 10:31:25;;;;;;;3.65;1.30;;;16.20;99.90;;;;;;5092775;28;20399;-52
2022/11/01 10:34:09;;;;;;;3.65;0.82;;;16.20;99.90;;;;;;5092613;28;20016;-46
2022/11/01 10:36:38;;;;;;;6.38;1.05;;;16.20;99.90;;;;;;5092891;28;20051;-46
2022/11/01 10:39:31;;;;;;;1.02;0.60;;;16.20;99.90;;;;;;5093130;28;20402;-49
2022/11/01 10:42:06;;;;;;;2.17;0.82;;;16.30;99.90;;;;;;5092548;28;20028;-46
2022/11/01 10:44:43;;;;;;;0.75;0.75;;;16.50;99.90;;;;;;5092901;28;20035;-47
2022/11/01 10:47:15;;;;;;;3.70;0.70;;;16.80;99.90;;;;;;5092113;28;20024;-47
2022/11/01 10:49:49;;;;;;;2.13;0.90;;;17.10;99.90;;;;;;5092593;28;20028;-51
2022/11/01 10:52:19;;;;;;;3.63;0.98;;;17.30;99.90;;;;;;5092046;28;20024;-51
2022/11/01 10:54:46;;;;;;;6.78;1.42;;;17.30;99.90;;;;;;5092319;28;20369;-47
2022/11/01 10:57:37;;;;;;;2.10;1.05;;;17.40;99.90;;;;;;5092364;28;20021;-49
2022/11/01 11:00:05;;;;;;;5.55;1.60;;;17.40;99.90;;;;;;5092664;28;20502;-49
2022/11/01 11:02:39;;;;;;;3.15;0.77;;;17.30;99.90;;;;;;5092225;28;20020;-49
2022/11/01 11:05:05;;;;;;;7.00;1.55;;;17.30;99.90;;;;;;5092446;28;20024;-53
2022/11/01 11:07:31;;;;;;;3.97;1.88;;;17.30;99.90;;;;;;5092070;28;20081;-48
2022/11/01 11:10:01;;;;;;;3.60;1.30;;;17.20;99.90;;;;;;5091397;28;20165;-49
2022/11/01 11:12:28;;;;;;;5.35;1.30;;;17.20;99.90;;;;;;5091455;28;20028;-48
2022/11/01 11:15:02;;;;;;;4.60;1.02;;;17.20;99.90;;;;;;5091612;28;20384;-48
2022/11/01 11:17:36;;;;;;;3.05;0.80;;;17.20;99.90;;;;;;5089984;28;20536;-46
2022/11/01 11:20:06;;;;;;;1.27;0.75;;;17.20;99.90;;;;;;5091799;28;20024;-45
2022/11/01 11:22:38;;;;;;;7.80;0.93;;;17.10;99.90;;;;;;5081145;28;20029;-48
2022/11/01 11:25:05;;;;;;;5.60;1.02;;;17.10;99.90;;;;;;5071732;28;20028;-46
2022/11/01 11:27:32;;;;;;;3.85;1.00;;;17.10;99.90;;;;;;5082086;28;20394;-48
2022/11/01 11:30:01;;;;;;;4.00;1.60;;;17.20;99.90;;;;;;5091160;28;20090;-47
2022/11/01 11:32:37;;;;;;;2.67;0.85;;;17.20;99.90;;;;;;5089988;28;20101;-47
2022/11/01 11:35:16;;;;;;;3.35;1.13;;;17.10;99.90;;;;;;5089961;28;20414;-48
2022/11/01 11:38:00;;;;;;;2.83;1.02;;;17.20;99.90;;;;;;5091648;28;20021;-47
2022/11/01 11:40:27;;;;;;;4.22;1.17;;;17.20;99.90;;;;;;5091527;28;20027;-52
2022/11/01 11:43:15;;;;;;;3.78;1.05;;;17.20;99.90;;;;;;5091355;28;20077;-48
2022/11/01 11:45:40;;;;;;;2.08;0.85;;;17.20;99.90;;;;;;5091636;28;20044;-48
2022/11/01 11:48:21;;;;;;;3.92;1.20;;;17.20;99.90;;;;;;5091294;28;20387;-48
2022/11/01 11:51:00;;;;;;;4.50;1.00;;;17.20;99.90;;;;;;5091517;28;20024;-45
2022/11/01 11:53:28;;;;;;;4.60;1.13;;;17.20;99.90;;;;;;5091114;28;20059;-49
2022/11/01 11:55:56;;;;;;;2.85;1.00;;;17.20;99.90;;;;;;5091601;28;20047;-50
2022/11/01 11:58:28;;;;;;;6.78;1.20;;;17.10;99.90;;;;;;5090541;28;20060;-49
2022/11/01 12:01:01;;;;;;;7.30;1.42;;;17.10;99.90;;;;;;5089163;28;20092;-51
2022/11/01 12:03:28;;;;;;;7.20;3.05;;;17.10;99.90;;;;;;5090738;28;20028;-53
2022/11/01 12:06:00;;;;;;;44.45;26.70;;;17.30;99.90;;;;;;5091466;28;20024;-51
2022/11/01 12:08:42;;;;;;;4.85;1.05;;;17.20;99.90;;;;;;5083944;28;20028;-49
2022/11/01 12:11:08;;;;;;;8.65;1.58;;;17.30;99.90;;;;;;5071127;28;20388;-48
2022/11/01 12:13:35;;;;;;;2.90;1.00;;;17.30;99.90;;;;;;5070782;28;20028;-49
2022/11/01 12:16:18;;;;;;;4.88;1.30;;;17.20;99.90;;;;;;5072671;28;20020;-49
2022/11/01 12:18:48;;;;;;;3.13;1.05;;;17.20;99.90;;;;;;5088131;28;20021;-49
2022/11/01 12:21:36;;;;;;;1.67;0.80;;;17.30;99.90;;;;;;5091252;28;20507;-47
2022/11/01 12:24:22;;;;;;;5.22;1.10;;;17.30;99.90;;;;;;5090759;28;20020;-50
2022/11/01 12:26:50;;;;;;;4.97;1.02;;;17.30;99.90;;;;;;5091189;28;20066;-47
2022/11/01 12:29:27;;;;;;;3.22;0.88;;;17.30;99.90;;;;;;5091208;28;20016;-48
2022/11/01 12:31:54;;;;;;;3.15;0.88;;;17.30;99.90;;;;;;5090895;28;20052;-49
2022/11/01 12:34:26;;;;;;;4.97;1.08;;;17.30;99.90;;;;;;5092581;28;20020;-51
2022/11/01 12:37:05;;;;;;;2.33;0.90;;;17.40;99.90;;;;;;5072688;28;20024;-48
2022/11/01 12:39:34;;;;;;;4.55;1.23;;;17.40;99.90;;;;;;5073145;28;20025;-52
2022/11/01 12:42:03;;;;;;;4.35;1.15;;;17.50;99.90;;;;;;5068642;28;20090;-57
2022/11/01 12:44:36;;;;;;;7.18;1.73;;;17.50;99.90;;;;;;5072466;28;20090;-52
2022/11/01 12:47:26;;;;;;;7.55;1.85;;;17.40;99.90;;;;;;5068487;28;20419;-49
2022/11/01 12:49:54;;;;;;;5.32;2.13;;;17.40;99.90;;;;;;5088844;28;20028;-53
2022/11/01 12:52:41;;;;;;;4.45;0.90;;;17.50;99.90;;;;;;5087801;28;20020;-53
2022/11/01 12:55:27;;;;;;;2.50;0.75;;;17.50;99.90;;;;;;5090260;28;20027;-50